Terminal Aerodrome Forecast
Issued by NWS

Home | Current Version | Previous Version | Text Only | Print | Product List | Glossary On
Versions: 1 2 3 4 5 6 7 8 9 10 11 12 13 14 15 16 17 18 19
000
FTUS43 KDLH 251200 AAA
TAFHYR
TAF AMD
KHYR 251241Z 2513/2612 05005KT 1 1/2SM RA BR SCT009 OVC015
     FM251900 VRB05KT 5SM -SHRA BR OVC008
     FM252200 25006KT P6SM VCSH OVC012
     FM260300 19004KT 2SM -DZ BR OVC008=

USA.gov is the U.S. government's official web portal to all federal, state and local government web resources and services.